createdAt,value
2022-07-28T00:01:21.103Z,19.09
2022-07-28T00:04:23.982Z,19.07
2022-07-28T00:07:26.829Z,19.05
2022-07-28T00:10:29.802Z,19.03
2022-07-28T00:13:32.643Z,19.02
2022-07-28T00:16:35.619Z,19.03
2022-07-28T00:19:40.006Z,19.01
2022-07-28T00:22:43.842Z,19.00
2022-07-28T00:25:46.704Z,18.97
2022-07-28T00:28:49.937Z,18.95
2022-07-28T00:31:52.944Z,18.93
2022-07-28T00:34:56.642Z,18.90
2022-07-28T00:38:01.151Z,18.86
2022-07-28T00:41:13.145Z,18.82
2022-07-28T00:44:16.699Z,18.77
2022-07-28T00:47:20.230Z,18.71
2022-07-28T00:50:23.181Z,18.65
2022-07-28T00:53:26.661Z,18.60
2022-07-28T00:56:29.598Z,18.54
2022-07-28T00:59:33.890Z,18.49
2022-07-28T01:02:37.297Z,18.44
2022-07-28T01:06:03.492Z,18.40
2022-07-28T01:09:09.315Z,18.35
2022-07-28T01:12:30.409Z,18.30
2022-07-28T01:15:42.246Z,18.26
2022-07-28T01:18:52.711Z,18.23
2022-07-28T01:21:57.130Z,18.21
2022-07-28T01:25:15.608Z,18.18
2022-07-28T01:28:33.148Z,18.15
2022-07-28T01:31:43.316Z,18.13
2022-07-28T01:34:58.906Z,18.11
2022-07-28T01:38:05.671Z,18.10
2022-07-28T01:41:14.923Z,18.09
2022-07-28T01:44:23.292Z,18.09
2022-07-28T01:47:30.068Z,18.08
2022-07-28T01:50:34.615Z,18.07
2022-07-28T01:53:39.179Z,18.06
2022-07-28T01:56:43.533Z,18.06
2022-07-28T01:59:48.396Z,18.04
2022-07-28T02:02:57.232Z,18.03
2022-07-28T02:06:03.140Z,18.01
2022-07-28T02:09:07.789Z,17.99
2022-07-28T02:12:14.977Z,17.98
2022-07-28T02:15:19.310Z,17.95
2022-07-28T02:18:23.399Z,17.94
2022-07-28T02:21:27.320Z,17.93
2022-07-28T02:24:31.868Z,17.90
2022-07-28T02:27:49.605Z,17.89
2022-07-28T02:31:00.208Z,17.88
2022-07-28T02:34:07.167Z,17.86
2022-07-28T02:37:12.743Z,17.86
2022-07-28T02:40:18.547Z,17.85
2022-07-28T02:43:27.192Z,17.86
2022-07-28T02:46:53.033Z,17.86
2022-07-28T02:49:58.660Z,17.86
2022-07-28T02:53:15.125Z,17.87
2022-07-28T02:56:20.321Z,17.87
2022-07-28T02:59:24.156Z,17.89
2022-07-28T03:02:30.821Z,17.89
2022-07-28T03:05:34.025Z,17.89
2022-07-28T03:08:37.133Z,17.90
2022-07-28T03:11:53.195Z,17.90
2022-07-28T03:14:56.150Z,17.89
2022-07-28T03:18:03.577Z,17.89
2022-07-28T03:21:06.485Z,17.89
2022-07-28T03:24:10.814Z,17.90
2022-07-28T03:27:22.238Z,17.90
2022-07-28T03:30:38.640Z,17.91
2022-07-28T03:33:41.851Z,17.92
2022-07-28T03:36:48.169Z,17.92
2022-07-28T03:39:54.856Z,17.93
2022-07-28T03:42:59.616Z,17.92
2022-07-28T03:46:02.858Z,17.92
2022-07-28T03:49:08.479Z,17.90
2022-07-28T03:52:11.547Z,17.89
2022-07-28T03:55:15.583Z,17.87
2022-07-28T03:58:26.285Z,17.86
2022-07-28T04:01:31.775Z,17.86
2022-07-28T04:04:34.761Z,17.84
2022-07-28T04:07:37.956Z,17.82
2022-07-28T04:10:41.388Z,17.81
2022-07-28T04:13:44.311Z,17.80
2022-07-28T04:16:47.305Z,17.79
2022-07-28T04:19:50.284Z,17.79
2022-07-28T04:22:55.261Z,17.78
2022-07-28T04:25:58.171Z,17.78
2022-07-28T04:29:03.243Z,17.78
2022-07-28T04:32:06.500Z,17.80
2022-07-28T04:35:14.109Z,17.82
2022-07-28T04:38:20.910Z,17.84
2022-07-28T04:41:23.863Z,17.86
2022-07-28T04:44:26.814Z,17.89
2022-07-28T04:47:29.785Z,17.92
2022-07-28T04:50:33.131Z,17.94
2022-07-28T04:53:36.601Z,17.96
2022-07-28T04:56:39.459Z,17.99
2022-07-28T04:59:42.875Z,18.01
2022-07-28T05:02:46.471Z,18.05
2022-07-28T05:05:54.138Z,18.08
2022-07-28T05:08:57.578Z,18.13
2022-07-28T05:12:00.412Z,18.16
2022-07-28T05:15:04.745Z,18.21
2022-07-28T05:18:07.679Z,18.27
2022-07-28T05:21:10.607Z,18.31
2022-07-28T05:24:14.693Z,18.34
2022-07-28T05:27:17.893Z,18.36
2022-07-28T05:30:22.060Z,18.40
2022-07-28T05:33:30.191Z,18.44
2022-07-28T05:36:36.075Z,18.52
2022-07-28T05:39:39.010Z,18.62
2022-07-28T05:42:43.418Z,18.72
2022-07-28T05:45:48.256Z,18.83
2022-07-28T05:48:52.000Z,18.95
2022-07-28T05:51:54.938Z,19.08
2022-07-28T05:54:57.868Z,19.22
2022-07-28T05:58:00.810Z,19.37
2022-07-28T06:06:00.848Z,19.63
2022-07-28T06:09:18.473Z,19.69
2022-07-28T06:12:21.572Z,19.72
2022-07-28T06:15:26.949Z,19.77
2022-07-28T06:18:29.899Z,19.83
2022-07-28T06:21:33.103Z,19.86
2022-07-28T06:24:36.939Z,19.91
2022-07-28T06:27:40.020Z,19.97
2022-07-28T06:30:43.189Z,20.05
2022-07-28T06:33:47.610Z,20.15
2022-07-28T06:36:52.406Z,20.26
2022-07-28T06:39:55.376Z,20.38
2022-07-28T06:42:58.390Z,20.50
2022-07-28T06:46:05.989Z,20.62
2022-07-28T06:49:09.018Z,20.72
2022-07-28T06:52:12.954Z,20.81
2022-07-28T06:55:16.397Z,20.89
2022-07-28T06:58:20.265Z,20.99
2022-07-28T07:01:23.408Z,21.11
2022-07-28T07:04:26.503Z,21.21
2022-07-28T07:07:29.532Z,21.33
2022-07-28T07:10:32.654Z,21.45
2022-07-28T07:13:37.080Z,21.56
2022-07-28T07:16:40.141Z,21.67
2022-07-28T07:19:43.235Z,21.79
2022-07-28T07:22:47.379Z,21.92
2022-07-28T07:25:50.367Z,22.05
2022-07-28T07:28:53.432Z,22.17
2022-07-28T07:31:58.645Z,22.28
2022-07-28T07:35:01.850Z,22.40
2022-07-28T07:38:05.044Z,22.51
2022-07-28T07:41:07.985Z,22.61
2022-07-28T07:44:11.018Z,22.73
2022-07-28T07:47:14.262Z,22.86
2022-07-28T07:50:17.282Z,22.99
2022-07-28T07:53:25.162Z,23.13
2022-07-28T07:56:28.082Z,23.26
2022-07-28T07:59:33.460Z,23.39
2022-07-28T08:02:43.070Z,23.53
2022-07-28T08:05:46.737Z,23.67
2022-07-28T08:08:49.774Z,23.80
2022-07-28T08:11:52.799Z,23.93
2022-07-28T08:14:57.471Z,24.04
2022-07-28T08:18:01.735Z,24.15
2022-07-28T08:21:04.874Z,24.25
2022-07-28T08:24:08.823Z,24.36
2022-07-28T08:27:13.970Z,24.46
2022-07-28T08:30:22.601Z,24.55
2022-07-28T08:33:26.436Z,24.63
2022-07-28T08:36:29.514Z,24.66
2022-07-28T08:39:34.466Z,24.67
2022-07-28T08:42:53.035Z,24.71
2022-07-28T08:45:59.089Z,24.78
2022-07-28T08:49:07.448Z,24.87
2022-07-28T08:52:12.711Z,24.93
2022-07-28T08:55:19.787Z,25.01
2022-07-28T08:58:22.932Z,25.10
2022-07-28T09:01:26.064Z,25.18
2022-07-28T09:04:42.369Z,25.28
2022-07-28T09:07:54.242Z,25.37
2022-07-28T09:10:58.162Z,25.47
2022-07-28T09:14:01.184Z,25.54
2022-07-28T09:17:05.372Z,25.61
2022-07-28T09:20:13.985Z,25.70
2022-07-28T09:23:42.314Z,25.82
2022-07-28T09:26:59.791Z,25.94
2022-07-28T09:30:02.932Z,26.05
2022-07-28T09:33:42.724Z,26.16
2022-07-28T09:36:40.426Z,26.29
2022-07-28T09:39:44.461Z,26.40
2022-07-28T09:42:50.324Z,26.51
2022-07-28T09:46:05.901Z,26.61
2022-07-28T09:49:09.202Z,26.69
2022-07-28T09:52:13.447Z,26.77
2022-07-28T09:55:17.394Z,26.87
2022-07-28T09:58:20.403Z,26.96
2022-07-28T10:01:29.247Z,27.05
2022-07-28T10:04:42.313Z,27.14
2022-07-28T10:07:52.815Z,27.21
2022-07-28T10:11:00.987Z,27.26
2022-07-28T10:14:06.190Z,27.32
2022-07-28T10:17:21.878Z,27.36
2022-07-28T10:20:27.063Z,27.43
2022-07-28T10:23:31.418Z,27.51
2022-07-28T10:26:45.439Z,27.59
2022-07-28T10:29:54.917Z,27.70
2022-07-28T10:33:01.220Z,27.80
2022-07-28T10:36:04.971Z,27.87
2022-07-28T10:39:19.729Z,27.94
2022-07-28T10:42:24.273Z,28.00
2022-07-28T10:45:48.055Z,28.03
2022-07-28T10:48:51.107Z,27.96
2022-07-28T10:52:08.973Z,27.85
2022-07-28T10:55:40.804Z,27.81
2022-07-28T10:59:04.994Z,27.85
2022-07-28T11:02:09.071Z,27.87
2022-07-28T11:05:39.220Z,27.90
2022-07-28T11:08:42.428Z,27.96
2022-07-28T11:11:55.927Z,28.06
2022-07-28T11:14:58.900Z,28.16
2022-07-28T11:18:22.244Z,28.31
2022-07-28T11:21:26.682Z,28.45
2022-07-28T11:25:00.827Z,28.52
2022-07-28T11:28:24.548Z,28.47
2022-07-28T11:31:48.839Z,28.36
2022-07-28T11:35:09.304Z,28.29
2022-07-28T11:38:14.101Z,28.28
2022-07-28T11:41:32.314Z,28.28
2022-07-28T11:44:37.473Z,28.12
2022-07-28T11:47:40.702Z,27.90
2022-07-28T11:51:03.636Z,27.74
2022-07-28T11:54:17.099Z,27.80
2022-07-28T11:57:24.303Z,27.86
2022-07-28T12:00:27.852Z,27.75
2022-07-28T12:03:49.523Z,27.56
2022-07-28T12:06:57.332Z,27.34
2022-07-28T12:10:01.589Z,27.21
2022-07-28T12:13:07.700Z,27.17
2022-07-28T12:16:12.258Z,27.19
2022-07-28T12:19:16.417Z,27.15
2022-07-28T12:22:19.453Z,27.02
2022-07-28T12:25:23.310Z,26.93
2022-07-28T12:28:29.634Z,26.94
2022-07-28T12:31:33.529Z,26.93
2022-07-28T12:34:38.099Z,26.90
2022-07-28T12:37:43.994Z,26.83
2022-07-28T12:40:48.174Z,26.73
2022-07-28T12:43:54.795Z,26.67
2022-07-28T12:46:58.318Z,26.75
2022-07-28T12:50:19.949Z,26.94
2022-07-28T12:53:24.541Z,27.13
2022-07-28T12:56:27.699Z,27.21
2022-07-28T12:59:35.616Z,27.34
2022-07-28T13:02:38.986Z,27.50
2022-07-28T13:06:00.672Z,27.60
2022-07-28T13:09:04.220Z,27.71
2022-07-28T13:12:25.042Z,27.80
2022-07-28T13:15:28.104Z,27.88
2022-07-28T13:18:46.797Z,27.96
2022-07-28T13:21:56.558Z,28.06
2022-07-28T13:25:05.288Z,28.15
2022-07-28T13:28:28.600Z,28.21
2022-07-28T13:31:33.686Z,28.24
2022-07-28T13:34:38.416Z,28.18
2022-07-28T13:37:41.543Z,27.97
2022-07-28T13:40:44.748Z,27.70
2022-07-28T13:43:49.156Z,27.42
2022-07-28T13:46:55.263Z,27.14
2022-07-28T13:49:58.519Z,26.88
2022-07-28T13:53:01.567Z,26.62
2022-07-28T13:56:05.910Z,26.40
2022-07-28T13:59:09.320Z,26.23
2022-07-28T14:02:15.524Z,26.08
2022-07-28T14:05:19.054Z,26.04
2022-07-28T14:08:25.180Z,26.09
2022-07-28T14:11:28.572Z,26.15
2022-07-28T14:14:31.485Z,26.25
2022-07-28T14:17:43.306Z,26.35
2022-07-28T14:20:48.265Z,26.46
2022-07-28T14:23:51.828Z,26.58
2022-07-28T14:26:54.901Z,26.68
2022-07-28T14:29:57.869Z,26.78
2022-07-28T14:33:00.858Z,26.88
2022-07-28T14:36:04.131Z,26.96
2022-07-28T14:39:12.107Z,27.01
2022-07-28T14:42:15.582Z,27.04
2022-07-28T14:45:18.556Z,27.06
2022-07-28T14:48:21.443Z,27.09
2022-07-28T14:51:24.347Z,27.11
2022-07-28T14:54:27.958Z,27.11
2022-07-28T14:57:50.118Z,27.08
2022-07-28T15:00:54.502Z,27.04
2022-07-28T15:03:57.680Z,26.98
2022-07-28T15:07:01.602Z,26.92
2022-07-28T15:10:05.694Z,26.86
2022-07-28T15:13:08.679Z,26.77
2022-07-28T15:16:12.212Z,26.68
2022-07-28T15:19:15.236Z,26.58
2022-07-28T15:22:18.085Z,26.48
2022-07-28T15:25:21.062Z,26.37
2022-07-28T15:28:23.962Z,26.27
2022-07-28T15:31:30.193Z,26.16
2022-07-28T15:34:33.371Z,26.06
2022-07-28T15:37:36.670Z,25.97
2022-07-28T15:40:39.628Z,25.89
2022-07-28T15:43:42.858Z,25.81
2022-07-28T15:46:46.648Z,25.73
2022-07-28T15:49:49.962Z,25.66
2022-07-28T15:52:52.827Z,25.59
2022-07-28T15:55:55.783Z,25.53
2022-07-28T15:59:02.196Z,25.47
2022-07-28T16:02:05.253Z,25.42
2022-07-28T16:05:08.546Z,25.36
2022-07-28T16:08:11.410Z,25.31
2022-07-28T16:11:14.351Z,25.25
2022-07-28T16:14:18.102Z,25.21
2022-07-28T16:17:22.735Z,25.16
2022-07-28T16:20:25.762Z,25.12
2022-07-28T16:23:28.877Z,25.08
2022-07-28T16:26:32.151Z,25.04
2022-07-28T16:29:35.632Z,25.00
2022-07-28T16:32:41.620Z,24.96
2022-07-28T16:35:44.570Z,24.92
2022-07-28T16:38:47.534Z,24.87
2022-07-28T16:41:50.583Z,24.83
2022-07-28T16:44:53.493Z,24.78
2022-07-28T16:47:56.570Z,24.74
2022-07-28T16:50:59.592Z,24.69
2022-07-28T16:54:02.532Z,24.64
2022-07-28T16:57:06.395Z,24.60
2022-07-28T17:00:11.171Z,24.56
2022-07-28T17:03:14.145Z,24.52
2022-07-28T17:06:17.239Z,24.47
2022-07-28T17:09:20.149Z,24.42
2022-07-28T17:12:23.641Z,24.37
2022-07-28T17:15:26.756Z,24.32
2022-07-28T17:18:29.774Z,24.28
2022-07-28T17:21:32.694Z,24.23
2022-07-28T17:24:35.573Z,24.19
2022-07-28T17:27:42.265Z,24.13
2022-07-28T17:30:47.727Z,24.09
2022-07-28T17:33:51.086Z,24.05
2022-07-28T17:36:55.533Z,24.00
2022-07-28T17:39:59.308Z,23.95
2022-07-28T17:43:02.206Z,23.91
2022-07-28T17:46:10.422Z,23.86
2022-07-28T17:49:14.425Z,23.82
2022-07-28T17:52:17.876Z,23.78
2022-07-28T17:56:00.339Z,23.74
2022-07-28T17:59:00.136Z,23.68
2022-07-28T18:02:03.171Z,23.62
2022-07-28T18:05:09.932Z,23.57
2022-07-28T18:08:17.307Z,23.51
2022-07-28T18:11:20.259Z,23.45
2022-07-28T18:14:24.085Z,23.39
2022-07-28T18:17:27.304Z,23.33
2022-07-28T18:20:30.475Z,23.28
2022-07-28T18:23:33.866Z,23.24
2022-07-28T18:26:36.914Z,23.17
2022-07-28T18:29:39.987Z,23.12
2022-07-28T18:32:43.137Z,23.05
2022-07-28T18:35:46.071Z,22.98
2022-07-28T18:38:48.981Z,22.92
2022-07-28T18:41:55.277Z,22.85
2022-07-28T18:44:58.289Z,22.78
2022-07-28T18:48:01.341Z,22.71
2022-07-28T18:51:04.427Z,22.64
2022-07-28T18:54:07.383Z,22.58
2022-07-28T18:57:10.321Z,22.52
2022-07-28T19:00:14.210Z,22.46
2022-07-28T19:03:17.191Z,22.41
2022-07-28T19:06:20.726Z,22.35
2022-07-28T19:09:23.757Z,22.28
2022-07-28T19:12:29.295Z,22.24
2022-07-28T19:15:33.591Z,22.18
2022-07-28T19:18:36.473Z,22.13
2022-07-28T19:21:43.367Z,22.09
2022-07-28T19:24:46.795Z,22.04
2022-07-28T19:27:51.021Z,22.00
2022-07-28T19:30:54.125Z,21.96
2022-07-28T19:33:57.486Z,21.91
2022-07-28T19:37:00.443Z,21.86
2022-07-28T19:40:03.683Z,21.82
2022-07-28T19:43:06.568Z,21.78
2022-07-28T19:46:10.284Z,21.74
2022-07-28T19:49:13.567Z,21.70
2022-07-28T19:52:16.846Z,21.65
2022-07-28T19:55:30.899Z,21.60
2022-07-28T19:58:35.258Z,21.56
2022-07-28T20:01:44.254Z,21.51
2022-07-28T20:04:52.203Z,21.47
2022-07-28T20:07:56.840Z,21.42
2022-07-28T20:11:00.654Z,21.38
2022-07-28T20:14:03.740Z,21.33
2022-07-28T20:17:07.029Z,21.28
2022-07-28T20:20:13.607Z,21.23
2022-07-28T20:23:16.621Z,21.18
2022-07-28T20:26:23.970Z,21.13
2022-07-28T20:29:27.806Z,21.08
2022-07-28T20:32:30.789Z,21.04
2022-07-28T20:35:34.291Z,21.01
2022-07-28T20:38:39.359Z,20.96
2022-07-28T20:41:43.120Z,20.93
2022-07-28T20:44:46.248Z,20.89
2022-07-28T20:47:49.985Z,20.86
2022-07-28T20:50:53.357Z,20.83
2022-07-28T20:53:56.251Z,20.80
2022-07-28T20:57:02.300Z,20.76
2022-07-28T21:00:08.567Z,20.73
2022-07-28T21:03:11.445Z,20.71
2022-07-28T21:06:14.403Z,20.67
2022-07-28T21:09:17.556Z,20.63
2022-07-28T21:12:20.472Z,20.60
2022-07-28T21:15:24.115Z,20.57
2022-07-28T21:18:27.265Z,20.53
2022-07-28T21:21:30.412Z,20.50
2022-07-28T21:24:34.207Z,20.46
2022-07-28T21:27:55.896Z,20.43
2022-07-28T21:30:59.040Z,20.39
2022-07-28T21:34:02.035Z,20.36
2022-07-28T21:37:06.710Z,20.32
2022-07-28T21:40:10.431Z,20.29
2022-07-28T21:43:14.984Z,20.26
2022-07-28T21:46:18.674Z,20.24
2022-07-28T21:49:21.881Z,20.20
2022-07-28T21:52:24.775Z,20.18
2022-07-28T21:55:27.677Z,20.14
2022-07-28T21:58:30.531Z,20.10
2022-07-28T22:01:33.504Z,20.07
2022-07-28T22:04:36.537Z,20.05
2022-07-28T22:07:39.505Z,20.02
2022-07-28T22:10:42.403Z,19.99
2022-07-28T22:13:45.267Z,19.96
2022-07-28T22:16:48.216Z,19.93
2022-07-28T22:19:51.136Z,19.91
2022-07-28T22:22:54.679Z,19.89
2022-07-28T22:25:57.733Z,19.88
2022-07-28T22:29:00.525Z,19.87
2022-07-28T22:32:03.903Z,19.85
2022-07-28T22:35:08.441Z,19.83
2022-07-28T22:38:11.295Z,19.80
2022-07-28T22:41:14.126Z,19.77
2022-07-28T22:44:17.538Z,19.74
2022-07-28T22:47:20.838Z,19.71
2022-07-28T22:50:23.734Z,19.70
2022-07-28T22:53:26.558Z,19.67
2022-07-28T22:56:41.452Z,19.64
2022-07-28T22:59:46.844Z,19.61
2022-07-28T23:02:53.981Z,19.57
2022-07-28T23:06:00.796Z,19.56
2022-07-28T23:09:03.791Z,19.55
2022-07-28T23:12:07.867Z,19.54
2022-07-28T23:15:10.824Z,19.53
2022-07-28T23:18:14.326Z,19.53
2022-07-28T23:21:17.190Z,19.51
2022-07-28T23:24:20.114Z,19.49
2022-07-28T23:27:23.165Z,19.47
2022-07-28T23:30:26.089Z,19.44
2022-07-28T23:33:56.405Z,19.40
2022-07-28T23:36:52.034Z,19.39
2022-07-28T23:39:55.258Z,19.39
2022-07-28T23:42:58.189Z,19.38
2022-07-28T23:46:01.130Z,19.36
2022-07-28T23:49:04.086Z,19.32
2022-07-28T23:52:07.004Z,19.29
2022-07-28T23:55:10.278Z,19.26
2022-07-28T23:58:13.225Z,19.22
